This is the latest recevied weather packets stored in our database for station/object AA0PB. If no packets are shown the sender has not sent any weather packets the latest 10 day(s).
| Time | Temp. | Humidity | Pressure | Rain* | Wind** | Luminosity | Snow |
|---|---|---|---|---|---|---|---|
| 1778097133 | 19.44° C | 71% | 1021.1 hPa | 0 mm | - | 352 W/m² | - |
| 1778096831 | 19.44° C | 69% | 1021.2 hPa | 0 mm | - | 295 W/m² | - |
| 1778096527 | 20° C | 68% | 1021.2 hPa | 0 mm | - | 311 W/m² | - |
| 1778096225 | 20° C | 70% | 1021.3 hPa | 0 mm | - | 341 W/m² | - |
| 1778095922 | 20.56° C | 66% | 1021.1 hPa | 0 mm | - | 424 W/m² | - |
| 1778095618 | 20° C | 69% | 1021.2 hPa | 0 mm | - | 441 W/m² | - |
| 1778095314 | 19.44° C | 68% | 1021.2 hPa | 0 mm | - | 499 W/m² | - |
| 1778095012 | 19.44° C | 71% | 1021.1 hPa | 0 mm | - | 880 W/m² | - |
| 1778094708 | 18.33° C | 72% | 1021.5 hPa | 0 mm | - | 742 W/m² | - |
| 1778094405 | 19.44° C | 71% | 1021.4 hPa | 0 mm | - | 347 W/m² | - |
| 1778094102 | 18.89° C | 71% | 1021.5 hPa | 0 mm | - | 526 W/m² | - |
| 1778093799 | 17.78° C | 74% | 1021.3 hPa | 0 mm | - | 598 W/m² | - |
| 1778093495 | 17.78° C | 75% | 1021.3 hPa | 0 mm | - | 501 W/m² | - |
| 1778093193 | 17.22° C | 76% | 1021.3 hPa | 0 mm | - | 675 W/m² | - |
| 1778092890 | 17.22° C | 76% | 1021.4 hPa | 0 mm | - | 333 W/m² | - |
| 1778092586 | 17.78° C | 75% | 1021.2 hPa | 0 mm | - | 458 W/m² | - |
| 1778092282 | 17.22° C | 76% | 1021.3 hPa | 0 mm | - | 666 W/m² | - |
| 1778091980 | 16.67° C | 77% | 1021.5 hPa | 0 mm | - | 394 W/m² | - |
| 1778091677 | 17.22° C | 77% | 1021.3 hPa | 0 mm | - | 387 W/m² | - |
| 1778091375 | 17.22° C | 77% | 1021.4 hPa | 0 mm | - | 344 W/m² | - |
| 1778091072 | 17.22° C | 78% | 1021 hPa | 0 mm | - | 500 W/m² | - |
| 1778090768 | 16.67° C | 77% | 1021 hPa | 0 mm | - | 402 W/m² | - |
| 1778090465 | 16.11° C | 80% | 1021.2 hPa | 0 mm | - | 309 W/m² | - |
| 1778090161 | 16.67° C | 78% | 1021.3 hPa | 0 mm | - | 221 W/m² | - |
| 1778089857 | 16.67° C | 79% | 1021.2 hPa | 0 mm | - | 177 W/m² | - |
* Rain latest hour (hover to see other rain measurements)
** Current wind speed in m/s (hover to see current wind gust speed)